sensor_id;sensor_type;location;lat;lon;timestamp;P1;durP1;ratioP1;P2;durP2;ratioP2
42244;SDS011;27912;51.828;5.688;2024-01-07T00:00:00;39.90;;;20.08;;
42244;SDS011;27912;51.828;5.688;2024-01-07T00:02:26;40.88;;;20.50;;
42244;SDS011;27912;51.828;5.688;2024-01-07T00:04:51;44.35;;;22.38;;
42244;SDS011;27912;51.828;5.688;2024-01-07T00:07:17;39.90;;;20.42;;
42244;SDS011;27912;51.828;5.688;2024-01-07T00:09:43;41.60;;;21.30;;
42244;SDS011;27912;51.828;5.688;2024-01-07T00:12:08;42.20;;;20.27;;
42244;SDS011;27912;51.828;5.688;2024-01-07T00:14:34;39.03;;;21.10;;
42244;SDS011;27912;51.828;5.688;2024-01-07T00:17:00;42.78;;;21.77;;
42244;SDS011;27912;51.828;5.688;2024-01-07T00:19:25;44.92;;;22.38;;
42244;SDS011;27912;51.828;5.688;2024-01-07T00:21:51;42.08;;;21.30;;
42244;SDS011;27912;51.828;5.688;2024-01-07T00:24:16;41.33;;;20.92;;
42244;SDS011;27912;51.828;5.688;2024-01-07T00:26:42;46.17;;;22.35;;
42244;SDS011;27912;51.828;5.688;2024-01-07T00:29:08;47.33;;;23.95;;
42244;SDS011;27912;51.828;5.688;2024-01-07T00:31:33;47.65;;;24.27;;
42244;SDS011;27912;51.828;5.688;2024-01-07T00:33:59;49.92;;;23.23;;
42244;SDS011;27912;51.828;5.688;2024-01-07T00:36:24;49.03;;;24.15;;
42244;SDS011;27912;51.828;5.688;2024-01-07T00:38:50;43.45;;;22.65;;
42244;SDS011;27912;51.828;5.688;2024-01-07T00:41:16;43.28;;;22.92;;
42244;SDS011;27912;51.828;5.688;2024-01-07T00:43:41;47.55;;;23.38;;
42244;SDS011;27912;51.828;5.688;2024-01-07T00:46:07;46.47;;;23.05;;
42244;SDS011;27912;51.828;5.688;2024-01-07T00:48:32;47.10;;;23.38;;
42244;SDS011;27912;51.828;5.688;2024-01-07T00:50:58;46.47;;;21.08;;
42244;SDS011;27912;51.828;5.688;2024-01-07T00:53:24;44.40;;;21.80;;
42244;SDS011;27912;51.828;5.688;2024-01-07T00:55:49;46.33;;;23.95;;
42244;SDS011;27912;51.828;5.688;2024-01-07T00:58:15;44.63;;;22.40;;
42244;SDS011;27912;51.828;5.688;2024-01-07T01:00:40;48.50;;;23.23;;
42244;SDS011;27912;51.828;5.688;2024-01-07T01:03:06;48.83;;;23.80;;
42244;SDS011;27912;51.828;5.688;2024-01-07T01:05:32;50.85;;;23.15;;
42244;SDS011;27912;51.828;5.688;2024-01-07T01:07:58;45.40;;;23.52;;
42244;SDS011;27912;51.828;5.688;2024-01-07T01:10:24;47.78;;;21.98;;
42244;SDS011;27912;51.828;5.688;2024-01-07T01:12:50;49.30;;;23.30;;
42244;SDS011;27912;51.828;5.688;2024-01-07T01:15:18;47.17;;;21.92;;
42244;SDS011;27912;51.828;5.688;2024-01-07T01:17:44;54.47;;;25.38;;
42244;SDS011;27912;51.828;5.688;2024-01-07T01:20:10;55.05;;;25.75;;
42244;SDS011;27912;51.828;5.688;2024-01-07T01:22:36;57.20;;;24.85;;
42244;SDS011;27912;51.828;5.688;2024-01-07T01:25:02;55.17;;;26.20;;
42244;SDS011;27912;51.828;5.688;2024-01-07T01:27:28;55.42;;;25.80;;
42244;SDS011;27912;51.828;5.688;2024-01-07T01:29:55;60.20;;;28.85;;
42244;SDS011;27912;51.828;5.688;2024-01-07T01:32:20;60.88;;;27.48;;
42244;SDS011;27912;51.828;5.688;2024-01-07T01:34:46;60.15;;;27.17;;
42244;SDS011;27912;51.828;5.688;2024-01-07T01:37:11;62.85;;;27.95;;
42244;SDS011;27912;51.828;5.688;2024-01-07T01:39:40;65.80;;;28.65;;
42244;SDS011;27912;51.828;5.688;2024-01-07T01:42:06;60.05;;;24.42;;
42244;SDS011;27912;51.828;5.688;2024-01-07T01:44:32;65.85;;;28.75;;
42244;SDS011;27912;51.828;5.688;2024-01-07T01:46:59;60.20;;;27.90;;
42244;SDS011;27912;51.828;5.688;2024-01-07T01:49:25;66.07;;;27.65;;
42244;SDS011;27912;51.828;5.688;2024-01-07T01:51:51;65.93;;;29.02;;
42244;SDS011;27912;51.828;5.688;2024-01-07T01:54:18;61.55;;;28.48;;
42244;SDS011;27912;51.828;5.688;2024-01-07T01:56:43;62.20;;;27.95;;
42244;SDS011;27912;51.828;5.688;2024-01-07T01:59:10;60.25;;;27.00;;
42244;SDS011;27912;51.828;5.688;2024-01-07T02:01:36;62.35;;;28.67;;
42244;SDS011;27912;51.828;5.688;2024-01-07T02:04:03;56.88;;;27.67;;
42244;SDS011;27912;51.828;5.688;2024-01-07T02:06:29;61.35;;;29.25;;
42244;SDS011;27912;51.828;5.688;2024-01-07T02:08:55;57.30;;;27.73;;
42244;SDS011;27912;51.828;5.688;2024-01-07T02:11:22;55.35;;;25.80;;
42244;SDS011;27912;51.828;5.688;2024-01-07T02:13:48;61.67;;;29.10;;
42244;SDS011;27912;51.828;5.688;2024-01-07T02:16:14;52.80;;;24.95;;
42244;SDS011;27912;51.828;5.688;2024-01-07T02:18:44;48.72;;;24.92;;
42244;SDS011;27912;51.828;5.688;2024-01-07T02:21:10;51.15;;;25.25;;
42244;SDS011;27912;51.828;5.688;2024-01-07T02:23:37;52.15;;;25.17;;
42244;SDS011;27912;51.828;5.688;2024-01-07T02:26:03;53.00;;;25.45;;
42244;SDS011;27912;51.828;5.688;2024-01-07T02:28:29;55.13;;;26.90;;
42244;SDS011;27912;51.828;5.688;2024-01-07T02:30:55;50.92;;;27.00;;
42244;SDS011;27912;51.828;5.688;2024-01-07T02:33:21;46.05;;;22.98;;
42244;SDS011;27912;51.828;5.688;2024-01-07T02:35:47;52.03;;;25.23;;
42244;SDS011;27912;51.828;5.688;2024-01-07T02:38:14;50.88;;;24.80;;
42244;SDS011;27912;51.828;5.688;2024-01-07T02:40:39;55.45;;;27.80;;
42244;SDS011;27912;51.828;5.688;2024-01-07T02:43:05;52.60;;;25.58;;
42244;SDS011;27912;51.828;5.688;2024-01-07T02:45:31;48.28;;;23.00;;
42244;SDS011;27912;51.828;5.688;2024-01-07T02:47:56;49.00;;;25.17;;
42244;SDS011;27912;51.828;5.688;2024-01-07T02:50:22;48.88;;;25.45;;
42244;SDS011;27912;51.828;5.688;2024-01-07T02:52:48;55.10;;;25.33;;
42244;SDS011;27912;51.828;5.688;2024-01-07T02:55:14;50.38;;;23.50;;
42244;SDS011;27912;51.828;5.688;2024-01-07T02:57:40;54.15;;;24.08;;
42244;SDS011;27912;51.828;5.688;2024-01-07T03:00:06;49.72;;;23.55;;
42244;SDS011;27912;51.828;5.688;2024-01-07T03:02:32;55.20;;;26.35;;
42244;SDS011;27912;51.828;5.688;2024-01-07T03:04:58;55.25;;;24.58;;
42244;SDS011;27912;51.828;5.688;2024-01-07T03:07:24;65.65;;;26.40;;
42244;SDS011;27912;51.828;5.688;2024-01-07T03:09:50;57.90;;;27.10;;
42244;SDS011;27912;51.828;5.688;2024-01-07T03:12:17;51.70;;;25.98;;
42244;SDS011;27912;51.828;5.688;2024-01-07T03:14:42;50.08;;;23.27;;
42244;SDS011;27912;51.828;5.688;2024-01-07T03:17:11;49.55;;;22.70;;
42244;SDS011;27912;51.828;5.688;2024-01-07T03:19:37;65.00;;;27.85;;
42244;SDS011;27912;51.828;5.688;2024-01-07T03:22:03;61.50;;;26.85;;
42244;SDS011;27912;51.828;5.688;2024-01-07T03:24:30;58.35;;;28.08;;
42244;SDS011;27912;51.828;5.688;2024-01-07T03:26:56;62.05;;;26.67;;
42244;SDS011;27912;51.828;5.688;2024-01-07T03:29:22;51.13;;;23.33;;
42244;SDS011;27912;51.828;5.688;2024-01-07T03:31:47;55.33;;;25.65;;
42244;SDS011;27912;51.828;5.688;2024-01-07T03:34:13;55.45;;;25.38;;
42244;SDS011;27912;51.828;5.688;2024-01-07T03:36:38;56.08;;;24.92;;
42244;SDS011;27912;51.828;5.688;2024-01-07T03:39:04;52.67;;;24.67;;
42244;SDS011;27912;51.828;5.688;2024-01-07T03:41:30;50.80;;;24.45;;
42244;SDS011;27912;51.828;5.688;2024-01-07T03:43:55;54.15;;;25.38;;
42244;SDS011;27912;51.828;5.688;2024-01-07T03:46:21;49.38;;;22.85;;
42244;SDS011;27912;51.828;5.688;2024-01-07T03:48:49;47.88;;;22.13;;
42244;SDS011;27912;51.828;5.688;2024-01-07T03:51:14;46.75;;;24.35;;
42244;SDS011;27912;51.828;5.688;2024-01-07T03:53:40;47.03;;;22.00;;
42244;SDS011;27912;51.828;5.688;2024-01-07T03:56:07;42.05;;;20.00;;
42244;SDS011;27912;51.828;5.688;2024-01-07T03:58:32;41.05;;;22.08;;
42244;SDS011;27912;51.828;5.688;2024-01-07T04:01:00;38.15;;;20.42;;
42244;SDS011;27912;51.828;5.688;2024-01-07T04:03:26;39.25;;;19.92;;
42244;SDS011;27912;51.828;5.688;2024-01-07T04:05:51;43.58;;;21.40;;
42244;SDS011;27912;51.828;5.688;2024-01-07T04:08:17;35.97;;;17.52;;
42244;SDS011;27912;51.828;5.688;2024-01-07T04:10:43;31.15;;;16.75;;
42244;SDS011;27912;51.828;5.688;2024-01-07T04:13:08;34.53;;;18.05;;
42244;SDS011;27912;51.828;5.688;2024-01-07T04:15:34;35.13;;;18.00;;
42244;SDS011;27912;51.828;5.688;2024-01-07T04:18:03;27.85;;;16.25;;
42244;SDS011;27912;51.828;5.688;2024-01-07T04:20:30;28.52;;;16.30;;
42244;SDS011;27912;51.828;5.688;2024-01-07T04:22:56;31.70;;;16.92;;
42244;SDS011;27912;51.828;5.688;2024-01-07T04:25:25;30.00;;;16.90;;
42244;SDS011;27912;51.828;5.688;2024-01-07T04:27:51;28.23;;;16.48;;
42244;SDS011;27912;51.828;5.688;2024-01-07T04:30:17;29.27;;;16.15;;
42244;SDS011;27912;51.828;5.688;2024-01-07T04:32:42;28.65;;;16.83;;
42244;SDS011;27912;51.828;5.688;2024-01-07T04:35:08;27.05;;;15.90;;
42244;SDS011;27912;51.828;5.688;2024-01-07T04:37:34;25.67;;;13.60;;
42244;SDS011;27912;51.828;5.688;2024-01-07T04:40:00;27.40;;;15.43;;
42244;SDS011;27912;51.828;5.688;2024-01-07T04:42:27;27.52;;;15.80;;
42244;SDS011;27912;51.828;5.688;2024-01-07T04:44:52;23.85;;;11.95;;
42244;SDS011;27912;51.828;5.688;2024-01-07T04:47:31;31.30;;;17.15;;
42244;SDS011;27912;51.828;5.688;2024-01-07T04:50:00;26.27;;;15.10;;
42244;SDS011;27912;51.828;5.688;2024-01-07T04:52:26;27.77;;;15.95;;
42244;SDS011;27912;51.828;5.688;2024-01-07T04:54:52;27.98;;;16.23;;
42244;SDS011;27912;51.828;5.688;2024-01-07T04:57:19;28.98;;;15.73;;
42244;SDS011;27912;51.828;5.688;2024-01-07T04:59:48;29.13;;;17.17;;
42244;SDS011;27912;51.828;5.688;2024-01-07T05:02:14;27.95;;;16.42;;
42244;SDS011;27912;51.828;5.688;2024-01-07T05:04:41;30.10;;;18.20;;
42244;SDS011;27912;51.828;5.688;2024-01-07T05:07:06;33.78;;;19.40;;
42244;SDS011;27912;51.828;5.688;2024-01-07T05:09:32;31.25;;;18.67;;
42244;SDS011;27912;51.828;5.688;2024-01-07T05:11:58;29.05;;;17.73;;
42244;SDS011;27912;51.828;5.688;2024-01-07T05:14:24;38.00;;;18.55;;
42244;SDS011;27912;51.828;5.688;2024-01-07T05:16:50;32.80;;;19.20;;
42244;SDS011;27912;51.828;5.688;2024-01-07T05:19:15;30.02;;;16.67;;
42244;SDS011;27912;51.828;5.688;2024-01-07T05:21:41;37.42;;;20.15;;
42244;SDS011;27912;51.828;5.688;2024-01-07T05:24:07;34.78;;;18.65;;
42244;SDS011;27912;51.828;5.688;2024-01-07T05:26:42;34.85;;;18.55;;
42244;SDS011;27912;51.828;5.688;2024-01-07T05:29:09;35.45;;;18.80;;
42244;SDS011;27912;51.828;5.688;2024-01-07T05:31:36;33.38;;;19.52;;
42244;SDS011;27912;51.828;5.688;2024-01-07T05:34:03;35.17;;;19.83;;
42244;SDS011;27912;51.828;5.688;2024-01-07T05:36:29;33.38;;;19.48;;
42244;SDS011;27912;51.828;5.688;2024-01-07T05:38:54;37.30;;;20.55;;
42244;SDS011;27912;51.828;5.688;2024-01-07T05:41:21;37.78;;;21.67;;
42244;SDS011;27912;51.828;5.688;2024-01-07T05:43:48;32.60;;;19.48;;
42244;SDS011;27912;51.828;5.688;2024-01-07T05:46:13;33.85;;;19.90;;
42244;SDS011;27912;51.828;5.688;2024-01-07T05:48:43;34.22;;;20.75;;
42244;SDS011;27912;51.828;5.688;2024-01-07T05:51:09;29.40;;;17.30;;
42244;SDS011;27912;51.828;5.688;2024-01-07T05:53:35;30.58;;;17.67;;
42244;SDS011;27912;51.828;5.688;2024-01-07T05:56:02;30.77;;;18.65;;
42244;SDS011;27912;51.828;5.688;2024-01-07T05:58:28;30.05;;;17.70;;
42244;SDS011;27912;51.828;5.688;2024-01-07T06:00:54;33.00;;;19.83;;
42244;SDS011;27912;51.828;5.688;2024-01-07T06:03:19;32.05;;;18.38;;
42244;SDS011;27912;51.828;5.688;2024-01-07T06:05:45;31.27;;;19.17;;
42244;SDS011;27912;51.828;5.688;2024-01-07T06:08:11;31.38;;;19.80;;
42244;SDS011;27912;51.828;5.688;2024-01-07T06:10:38;29.70;;;17.70;;
42244;SDS011;27912;51.828;5.688;2024-01-07T06:13:04;30.90;;;17.98;;
42244;SDS011;27912;51.828;5.688;2024-01-07T06:15:31;33.17;;;19.17;;
42244;SDS011;27912;51.828;5.688;2024-01-07T06:17:57;34.10;;;20.27;;
42244;SDS011;27912;51.828;5.688;2024-01-07T06:20:23;29.73;;;16.55;;
42244;SDS011;27912;51.828;5.688;2024-01-07T06:22:50;26.58;;;16.15;;
42244;SDS011;27912;51.828;5.688;2024-01-07T06:25:16;25.92;;;15.70;;
42244;SDS011;27912;51.828;5.688;2024-01-07T06:27:42;28.65;;;17.42;;
42244;SDS011;27912;51.828;5.688;2024-01-07T06:30:08;28.92;;;16.60;;
42244;SDS011;27912;51.828;5.688;2024-01-07T06:32:37;25.20;;;15.98;;
42244;SDS011;27912;51.828;5.688;2024-01-07T06:35:04;29.73;;;16.77;;
42244;SDS011;27912;51.828;5.688;2024-01-07T06:37:31;30.38;;;17.75;;
42244;SDS011;27912;51.828;5.688;2024-01-07T06:39:58;28.85;;;17.80;;
42244;SDS011;27912;51.828;5.688;2024-01-07T06:42:24;24.83;;;16.40;;
42244;SDS011;27912;51.828;5.688;2024-01-07T06:44:49;31.45;;;18.55;;
42244;SDS011;27912;51.828;5.688;2024-01-07T06:47:15;27.17;;;17.60;;
42244;SDS011;27912;51.828;5.688;2024-01-07T06:49:41;29.38;;;18.48;;
42244;SDS011;27912;51.828;5.688;2024-01-07T06:52:06;27.48;;;15.85;;
42244;SDS011;27912;51.828;5.688;2024-01-07T06:54:32;30.75;;;16.73;;
42244;SDS011;27912;51.828;5.688;2024-01-07T06:56:58;26.02;;;15.40;;
42244;SDS011;27912;51.828;5.688;2024-01-07T06:59:24;25.45;;;15.80;;
42244;SDS011;27912;51.828;5.688;2024-01-07T07:01:49;24.88;;;15.50;;
42244;SDS011;27912;51.828;5.688;2024-01-07T07:04:15;21.83;;;13.48;;
42244;SDS011;27912;51.828;5.688;2024-01-07T07:06:41;24.40;;;13.88;;
42244;SDS011;27912;51.828;5.688;2024-01-07T07:09:06;27.75;;;15.18;;
42244;SDS011;27912;51.828;5.688;2024-01-07T07:11:32;21.00;;;14.15;;
42244;SDS011;27912;51.828;5.688;2024-01-07T07:13:58;21.95;;;12.77;;
42244;SDS011;27912;51.828;5.688;2024-01-07T07:16:23;21.55;;;12.80;;
42244;SDS011;27912;51.828;5.688;2024-01-07T07:18:50;22.48;;;14.68;;
42244;SDS011;27912;51.828;5.688;2024-01-07T07:21:16;28.88;;;14.80;;
42244;SDS011;27912;51.828;5.688;2024-01-07T07:23:42;22.00;;;13.10;;
42244;SDS011;27912;51.828;5.688;2024-01-07T07:26:07;23.15;;;14.43;;
42244;SDS011;27912;51.828;5.688;2024-01-07T07:28:33;22.23;;;13.68;;
42244;SDS011;27912;51.828;5.688;2024-01-07T07:30:59;22.13;;;13.52;;
42244;SDS011;27912;51.828;5.688;2024-01-07T07:33:24;25.48;;;14.52;;
42244;SDS011;27912;51.828;5.688;2024-01-07T07:35:50;22.70;;;14.88;;
42244;SDS011;27912;51.828;5.688;2024-01-07T07:38:16;21.85;;;14.32;;
42244;SDS011;27912;51.828;5.688;2024-01-07T07:40:42;25.23;;;14.57;;
42244;SDS011;27912;51.828;5.688;2024-01-07T07:43:08;21.77;;;13.40;;
42244;SDS011;27912;51.828;5.688;2024-01-07T07:45:33;24.17;;;14.90;;
42244;SDS011;27912;51.828;5.688;2024-01-07T07:48:00;26.83;;;14.98;;
42244;SDS011;27912;51.828;5.688;2024-01-07T07:50:26;24.17;;;13.82;;
42244;SDS011;27912;51.828;5.688;2024-01-07T07:52:52;23.60;;;12.95;;
42244;SDS011;27912;51.828;5.688;2024-01-07T07:55:18;21.05;;;13.60;;
42244;SDS011;27912;51.828;5.688;2024-01-07T07:57:44;22.85;;;12.80;;
42244;SDS011;27912;51.828;5.688;2024-01-07T08:00:14;23.55;;;13.48;;
42244;SDS011;27912;51.828;5.688;2024-01-07T08:02:41;19.08;;;13.00;;
42244;SDS011;27912;51.828;5.688;2024-01-07T08:05:08;19.80;;;12.40;;
42244;SDS011;27912;51.828;5.688;2024-01-07T08:07:33;19.83;;;11.30;;
42244;SDS011;27912;51.828;5.688;2024-01-07T08:09:59;16.90;;;11.52;;
42244;SDS011;27912;51.828;5.688;2024-01-07T08:12:25;17.27;;;10.90;;
42244;SDS011;27912;51.828;5.688;2024-01-07T08:14:51;16.52;;;9.57;;
42244;SDS011;27912;51.828;5.688;2024-01-07T08:17:16;15.13;;;8.27;;
42244;SDS011;27912;51.828;5.688;2024-01-07T08:19:42;15.73;;;10.68;;
42244;SDS011;27912;51.828;5.688;2024-01-07T08:22:08;16.58;;;9.07;;
42244;SDS011;27912;51.828;5.688;2024-01-07T08:24:37;13.68;;;9.30;;
42244;SDS011;27912;51.828;5.688;2024-01-07T08:27:03;16.15;;;9.57;;
42244;SDS011;27912;51.828;5.688;2024-01-07T08:29:30;17.92;;;11.38;;
42244;SDS011;27912;51.828;5.688;2024-01-07T08:31:56;18.55;;;11.88;;
42244;SDS011;27912;51.828;5.688;2024-01-07T08:34:22;19.50;;;12.15;;
42244;SDS011;27912;51.828;5.688;2024-01-07T08:36:47;18.30;;;12.15;;
42244;SDS011;27912;51.828;5.688;2024-01-07T08:39:14;20.95;;;12.48;;
42244;SDS011;27912;51.828;5.688;2024-01-07T08:41:41;16.27;;;11.10;;
42244;SDS011;27912;51.828;5.688;2024-01-07T08:44:07;15.75;;;9.40;;
42244;SDS011;27912;51.828;5.688;2024-01-07T08:46:35;17.70;;;10.82;;
42244;SDS011;27912;51.828;5.688;2024-01-07T08:49:03;20.73;;;10.48;;
42244;SDS011;27912;51.828;5.688;2024-01-07T08:51:29;17.60;;;11.35;;
42244;SDS011;27912;51.828;5.688;2024-01-07T08:53:55;9.75;;;6.07;;
42244;SDS011;27912;51.828;5.688;2024-01-07T08:56:23;11.00;;;8.20;;
42244;SDS011;27912;51.828;5.688;2024-01-07T08:58:48;10.13;;;7.63;;
42244;SDS011;27912;51.828;5.688;2024-01-07T09:01:16;13.23;;;8.45;;
42244;SDS011;27912;51.828;5.688;2024-01-07T09:03:41;11.82;;;8.13;;
42244;SDS011;27912;51.828;5.688;2024-01-07T09:06:07;10.65;;;7.47;;
42244;SDS011;27912;51.828;5.688;2024-01-07T09:08:33;11.55;;;8.20;;
42244;SDS011;27912;51.828;5.688;2024-01-07T09:11:01;11.45;;;8.82;;
42244;SDS011;27912;51.828;5.688;2024-01-07T09:13:32;11.90;;;8.70;;
42244;SDS011;27912;51.828;5.688;2024-01-07T09:15:58;14.95;;;9.18;;
42244;SDS011;27912;51.828;5.688;2024-01-07T09:18:24;14.25;;;9.18;;
42244;SDS011;27912;51.828;5.688;2024-01-07T09:20:51;12.30;;;8.15;;
42244;SDS011;27912;51.828;5.688;2024-01-07T09:23:17;11.52;;;6.78;;
42244;SDS011;27912;51.828;5.688;2024-01-07T09:25:45;14.90;;;8.73;;
42244;SDS011;27912;51.828;5.688;2024-01-07T09:28:15;13.23;;;8.10;;
42244;SDS011;27912;51.828;5.688;2024-01-07T09:30:41;16.15;;;9.05;;
42244;SDS011;27912;51.828;5.688;2024-01-07T09:33:07;12.25;;;8.88;;
42244;SDS011;27912;51.828;5.688;2024-01-07T09:35:33;15.95;;;9.77;;
42244;SDS011;27912;51.828;5.688;2024-01-07T09:37:59;15.50;;;9.02;;
42244;SDS011;27912;51.828;5.688;2024-01-07T09:40:33;17.42;;;10.18;;
42244;SDS011;27912;51.828;5.688;2024-01-07T09:42:58;13.45;;;8.80;;
42244;SDS011;27912;51.828;5.688;2024-01-07T09:45:25;13.63;;;8.38;;
42244;SDS011;27912;51.828;5.688;2024-01-07T09:47:51;14.95;;;9.00;;
42244;SDS011;27912;51.828;5.688;2024-01-07T09:50:17;13.95;;;9.38;;
42244;SDS011;27912;51.828;5.688;2024-01-07T09:52:43;15.10;;;9.85;;
42244;SDS011;27912;51.828;5.688;2024-01-07T09:55:12;13.82;;;9.20;;
42244;SDS011;27912;51.828;5.688;2024-01-07T09:57:50;15.35;;;9.65;;
42244;SDS011;27912;51.828;5.688;2024-01-07T10:00:17;17.58;;;10.25;;
42244;SDS011;27912;51.828;5.688;2024-01-07T10:02:43;11.35;;;6.10;;
42244;SDS011;27912;51.828;5.688;2024-01-07T10:05:10;16.98;;;9.10;;
42244;SDS011;27912;51.828;5.688;2024-01-07T10:07:35;12.90;;;7.60;;
42244;SDS011;27912;51.828;5.688;2024-01-07T10:10:15;13.00;;;7.45;;
42244;SDS011;27912;51.828;5.688;2024-01-07T10:12:46;13.52;;;8.50;;
42244;SDS011;27912;51.828;5.688;2024-01-07T10:15:12;16.05;;;7.88;;
42244;SDS011;27912;51.828;5.688;2024-01-07T10:17:39;14.73;;;8.43;;
42244;SDS011;27912;51.828;5.688;2024-01-07T10:20:08;12.80;;;7.80;;
42244;SDS011;27912;51.828;5.688;2024-01-07T10:22:35;13.57;;;8.18;;
42244;SDS011;27912;51.828;5.688;2024-01-07T10:25:04;13.52;;;7.50;;
42244;SDS011;27912;51.828;5.688;2024-01-07T10:27:35;15.13;;;8.57;;
42244;SDS011;27912;51.828;5.688;2024-01-07T10:30:03;15.35;;;9.63;;
42244;SDS011;27912;51.828;5.688;2024-01-07T10:32:29;14.68;;;8.48;;
42244;SDS011;27912;51.828;5.688;2024-01-07T10:34:56;15.18;;;9.48;;
42244;SDS011;27912;51.828;5.688;2024-01-07T10:39:58;16.52;;;8.32;;
42244;SDS011;27912;51.828;5.688;2024-01-07T10:42:30;11.25;;;7.13;;
42244;SDS011;27912;51.828;5.688;2024-01-07T10:44:59;15.68;;;8.65;;
42244;SDS011;27912;51.828;5.688;2024-01-07T10:47:26;14.20;;;7.60;;
42244;SDS011;27912;51.828;5.688;2024-01-07T10:49:56;11.32;;;7.20;;
42244;SDS011;27912;51.828;5.688;2024-01-07T10:52:23;10.40;;;6.60;;
42244;SDS011;27912;51.828;5.688;2024-01-07T10:54:51;10.82;;;6.40;;
42244;SDS011;27912;51.828;5.688;2024-01-07T10:57:30;12.07;;;7.07;;
42244;SDS011;27912;51.828;5.688;2024-01-07T11:00:15;11.18;;;6.30;;
42244;SDS011;27912;51.828;5.688;2024-01-07T11:05:43;10.90;;;5.65;;
42244;SDS011;27912;51.828;5.688;2024-01-07T11:11:16;7.53;;;4.65;;
42244;SDS011;27912;51.828;5.688;2024-01-07T11:13:46;8.27;;;4.80;;
42244;SDS011;27912;51.828;5.688;2024-01-07T11:16:11;10.40;;;5.55;;
42244;SDS011;27912;51.828;5.688;2024-01-07T11:18:45;7.50;;;4.50;;
42244;SDS011;27912;51.828;5.688;2024-01-07T11:21:12;10.90;;;5.78;;
42244;SDS011;27912;51.828;5.688;2024-01-07T11:23:49;7.97;;;4.18;;
42244;SDS011;27912;51.828;5.688;2024-01-07T11:26:17;8.95;;;4.35;;
42244;SDS011;27912;51.828;5.688;2024-01-07T11:28:50;8.52;;;3.95;;
42244;SDS011;27912;51.828;5.688;2024-01-07T11:34:06;8.05;;;4.53;;
42244;SDS011;27912;51.828;5.688;2024-01-07T11:36:35;4.93;;;3.35;;
42244;SDS011;27912;51.828;5.688;2024-01-07T11:39:01;7.38;;;4.25;;
42244;SDS011;27912;51.828;5.688;2024-01-07T11:41:29;8.20;;;4.53;;
42244;SDS011;27912;51.828;5.688;2024-01-07T11:43:58;6.15;;;3.97;;
42244;SDS011;27912;51.828;5.688;2024-01-07T11:46:28;8.88;;;4.80;;
42244;SDS011;27912;51.828;5.688;2024-01-07T11:48:54;6.43;;;4.45;;
42244;SDS011;27912;51.828;5.688;2024-01-07T11:51:30;7.47;;;4.68;;
42244;SDS011;27912;51.828;5.688;2024-01-07T11:53:57;6.07;;;4.03;;
42244;SDS011;27912;51.828;5.688;2024-01-07T11:56:24;6.60;;;3.60;;
42244;SDS011;27912;51.828;5.688;2024-01-07T11:58:51;5.75;;;3.78;;
42244;SDS011;27912;51.828;5.688;2024-01-07T12:01:16;4.28;;;2.67;;
42244;SDS011;27912;51.828;5.688;2024-01-07T12:03:43;9.23;;;3.42;;
42244;SDS011;27912;51.828;5.688;2024-01-07T12:06:10;4.72;;;2.78;;
42244;SDS011;27912;51.828;5.688;2024-01-07T12:08:39;5.53;;;2.50;;
42244;SDS011;27912;51.828;5.688;2024-01-07T12:11:08;4.50;;;2.05;;
42244;SDS011;27912;51.828;5.688;2024-01-07T12:13:36;3.33;;;2.13;;
42244;SDS011;27912;51.828;5.688;2024-01-07T12:16:02;5.60;;;2.53;;
42244;SDS011;27912;51.828;5.688;2024-01-07T12:18:29;3.63;;;2.10;;
42244;SDS011;27912;51.828;5.688;2024-01-07T12:20:59;4.18;;;2.05;;
42244;SDS011;27912;51.828;5.688;2024-01-07T12:23:25;3.22;;;1.65;;
42244;SDS011;27912;51.828;5.688;2024-01-07T12:25:54;5.22;;;1.42;;
42244;SDS011;27912;51.828;5.688;2024-01-07T12:28:31;3.90;;;1.10;;
42244;SDS011;27912;51.828;5.688;2024-01-07T12:30:57;3.38;;;0.93;;
42244;SDS011;27912;51.828;5.688;2024-01-07T12:33:23;2.75;;;1.20;;
42244;SDS011;27912;51.828;5.688;2024-01-07T12:35:51;3.13;;;0.90;;
42244;SDS011;27912;51.828;5.688;2024-01-07T12:38:22;3.03;;;1.00;;
42244;SDS011;27912;51.828;5.688;2024-01-07T12:40:52;2.67;;;1.00;;
42244;SDS011;27912;51.828;5.688;2024-01-07T12:43:18;3.33;;;0.95;;
42244;SDS011;27912;51.828;5.688;2024-01-07T12:45:44;4.50;;;1.23;;
42244;SDS011;27912;51.828;5.688;2024-01-07T12:48:11;2.38;;;1.05;;
42244;SDS011;27912;51.828;5.688;2024-01-07T12:50:37;3.42;;;1.08;;
42244;SDS011;27912;51.828;5.688;2024-01-07T12:53:02;3.95;;;1.08;;
42244;SDS011;27912;51.828;5.688;2024-01-07T12:55:28;2.08;;;0.70;;
42244;SDS011;27912;51.828;5.688;2024-01-07T12:57:54;3.97;;;1.30;;
42244;SDS011;27912;51.828;5.688;2024-01-07T13:00:20;3.13;;;0.80;;
42244;SDS011;27912;51.828;5.688;2024-01-07T13:02:46;2.67;;;0.82;;
42244;SDS011;27912;51.828;5.688;2024-01-07T13:05:12;3.47;;;0.80;;
42244;SDS011;27912;51.828;5.688;2024-01-07T13:07:38;2.72;;;0.70;;
42244;SDS011;27912;51.828;5.688;2024-01-07T13:10:04;2.13;;;0.88;;
42244;SDS011;27912;51.828;5.688;2024-01-07T13:12:31;2.50;;;0.70;;
42244;SDS011;27912;51.828;5.688;2024-01-07T13:14:56;2.30;;;0.65;;
42244;SDS011;27912;51.828;5.688;2024-01-07T13:17:22;1.80;;;0.70;;
42244;SDS011;27912;51.828;5.688;2024-01-07T13:19:47;3.97;;;0.80;;
42244;SDS011;27912;51.828;5.688;2024-01-07T13:22:13;2.17;;;0.70;;
42244;SDS011;27912;51.828;5.688;2024-01-07T13:24:39;3.30;;;0.85;;
42244;SDS011;27912;51.828;5.688;2024-01-07T13:27:05;3.28;;;0.75;;
42244;SDS011;27912;51.828;5.688;2024-01-07T13:29:33;2.72;;;0.95;;
42244;SDS011;27912;51.828;5.688;2024-01-07T13:31:59;1.60;;;0.70;;
42244;SDS011;27912;51.828;5.688;2024-01-07T13:34:24;3.70;;;0.80;;
42244;SDS011;27912;51.828;5.688;2024-01-07T13:36:50;1.80;;;0.70;;
42244;SDS011;27912;51.828;5.688;2024-01-07T13:39:16;3.75;;;0.80;;
42244;SDS011;27912;51.828;5.688;2024-01-07T13:41:42;2.78;;;0.63;;
42244;SDS011;27912;51.828;5.688;2024-01-07T13:44:09;3.80;;;0.73;;
42244;SDS011;27912;51.828;5.688;2024-01-07T13:46:48;2.97;;;0.98;;
42244;SDS011;27912;51.828;5.688;2024-01-07T13:49:14;1.67;;;0.70;;
42244;SDS011;27912;51.828;5.688;2024-01-07T13:51:40;2.10;;;0.70;;
42244;SDS011;27912;51.828;5.688;2024-01-07T13:54:06;2.35;;;0.60;;
42244;SDS011;27912;51.828;5.688;2024-01-07T13:56:33;2.45;;;0.70;;
42244;SDS011;27912;51.828;5.688;2024-01-07T13:59:01;1.70;;;0.60;;
42244;SDS011;27912;51.828;5.688;2024-01-07T14:01:28;1.88;;;0.60;;
42244;SDS011;27912;51.828;5.688;2024-01-07T14:03:54;3.60;;;0.57;;
42244;SDS011;27912;51.828;5.688;2024-01-07T14:06:20;2.97;;;0.60;;
42244;SDS011;27912;51.828;5.688;2024-01-07T14:08:46;1.63;;;0.70;;
42244;SDS011;27912;51.828;5.688;2024-01-07T14:11:12;4.20;;;0.70;;
42244;SDS011;27912;51.828;5.688;2024-01-07T14:13:37;2.00;;;0.45;;
42244;SDS011;27912;51.828;5.688;2024-01-07T14:16:03;1.08;;;0.40;;
42244;SDS011;27912;51.828;5.688;2024-01-07T14:18:29;1.38;;;0.50;;
42244;SDS011;27912;51.828;5.688;2024-01-07T14:20:55;1.70;;;0.50;;
42244;SDS011;27912;51.828;5.688;2024-01-07T14:23:20;1.40;;;0.50;;
42244;SDS011;27912;51.828;5.688;2024-01-07T14:25:46;3.53;;;0.60;;
42244;SDS011;27912;51.828;5.688;2024-01-07T14:28:12;1.55;;;0.77;;
42244;SDS011;27912;51.828;5.688;2024-01-07T14:30:37;1.55;;;0.50;;
42244;SDS011;27912;51.828;5.688;2024-01-07T14:33:03;2.15;;;0.60;;
42244;SDS011;27912;51.828;5.688;2024-01-07T14:35:29;1.45;;;0.40;;
42244;SDS011;27912;51.828;5.688;2024-01-07T14:37:55;1.40;;;0.45;;